Decatur, Alabama
Current Conditions -  °F | °C
As of 3:53 PM on Friday 28 Nov 2014 (Local Time) from KDCU Reporting Station
Clear Clear  
Wind Chill: 44°   Ceiling: Unl
Heat Index: 49°   Visibility: 10mi
Dew Point: 25°   Wind: 12mph
Humidity: 39%   Direction: 170°S
Pressure: 30.26"   Gusts: NA
Location:  34.61°N, 86.98°W
Report Text: KDCU 282153Z AUTO 17010KT 10SM CLR 09/M04 A3026 RMK AO2 SLP249 T00941039 $
Loading
Personal Weather Stations






























Interactive Weather Map New forecast layout! Learn more

10-Day Weather Forecast

Advertisements
Track Severe Weather on mobile